createdAt,value
2018-12-25T00:00:14.779Z,10.30
2018-12-25T00:01:14.659Z,10.80
2018-12-25T00:03:18.681Z,10.40
2018-12-25T00:04:18.571Z,10.30
2018-12-25T00:06:22.579Z,11.40
2018-12-25T00:07:22.560Z,10.10
2018-12-25T00:09:27.418Z,10.40
2018-12-25T00:10:27.330Z,10.10
2018-12-25T00:12:31.279Z,10.60
2018-12-25T00:13:31.239Z,9.90
2018-12-25T00:15:35.241Z,9.90
2018-12-25T00:16:35.150Z,9.50
2018-12-25T00:18:39.147Z,10.30
2018-12-25T00:19:39.048Z,10.20
2018-12-25T00:21:43.072Z,10.50
2018-12-25T00:22:42.960Z,10.10
2018-12-25T00:24:35.908Z,11.00
2018-12-25T00:25:35.798Z,9.70
2018-12-25T00:27:39.818Z,10.20
2018-12-25T00:28:39.788Z,10.40
2018-12-25T00:30:43.729Z,10.90
2018-12-25T00:31:43.628Z,10.40
2018-12-25T00:33:48.091Z,10.60
2018-12-25T00:34:48.138Z,10.40
2018-12-25T00:36:52.064Z,11.50
2018-12-25T00:37:51.958Z,10.40
2018-12-25T00:39:55.972Z,10.70
2018-12-25T00:40:55.867Z,10.70
2018-12-25T00:42:59.877Z,10.50
2018-12-25T00:43:59.778Z,10.60
2018-12-25T00:46:03.788Z,10.50
2018-12-25T00:47:03.788Z,10.70
2018-12-25T00:49:14.790Z,10.30
2018-12-25T00:50:07.680Z,11.60
2018-12-25T00:52:11.607Z,10.70
2018-12-25T00:53:11.511Z,10.90
2018-12-25T00:55:04.398Z,11.30
2018-12-25T00:56:04.371Z,11.60
2018-12-25T00:58:08.370Z,11.30
2018-12-25T00:59:08.268Z,11.40
2018-12-25T01:01:12.276Z,11.10
2018-12-25T01:02:12.180Z,11.50
2018-12-25T01:04:16.127Z,11.20
2018-12-25T01:05:16.087Z,11.60
2018-12-25T01:07:20.098Z,11.00
2018-12-25T01:08:19.997Z,11.70
2018-12-25T01:10:24.006Z,10.90
2018-12-25T01:11:23.979Z,11.40
2018-12-25T01:13:27.917Z,11.50
2018-12-25T01:14:27.818Z,11.60
2018-12-25T01:16:31.768Z,11.50
2018-12-25T01:17:31.739Z,11.60
2018-12-25T01:19:35.752Z,11.30
2018-12-25T01:20:35.643Z,11.40
2018-12-25T01:22:39.659Z,11.50
2018-12-25T01:23:39.558Z,11.70
2018-12-25T01:25:43.568Z,11.20
2018-12-25T01:26:43.457Z,11.90
2018-12-25T01:28:47.467Z,11.10
2018-12-25T01:29:47.380Z,11.60
2018-12-25T01:31:51.389Z,11.70
2018-12-25T01:32:51.348Z,12.20
2018-12-25T01:34:44.240Z,12.00
2018-12-25T01:35:44.161Z,11.90
2018-12-25T01:37:48.237Z,11.90
2018-12-25T01:38:48.150Z,12.40
2018-12-25T01:40:53.079Z,11.70
2018-12-25T01:41:52.967Z,12.00
2018-12-25T01:43:57.908Z,11.80
2018-12-25T01:44:57.809Z,11.70
2018-12-25T01:47:02.739Z,12.30
2018-12-25T01:48:02.638Z,12.30
2018-12-25T01:50:07.576Z,11.50
2018-12-25T01:51:07.469Z,12.00
2018-12-25T01:53:12.398Z,11.60
2018-12-25T01:54:12.305Z,12.10
2018-12-25T01:56:17.236Z,11.30
2018-12-25T01:57:17.129Z,11.40
2018-12-25T01:59:21.078Z,11.60
2018-12-25T02:00:21.039Z,11.20
2018-12-25T02:02:25.095Z,11.80
2018-12-25T02:03:24.960Z,12.60
2018-12-25T02:05:28.968Z,11.20
2018-12-25T02:06:28.866Z,11.30
2018-12-25T02:08:32.881Z,11.70
2018-12-25T02:09:32.768Z,11.00
2018-12-25T02:11:36.786Z,11.60
2018-12-25T02:12:36.679Z,11.60
2018-12-25T02:14:29.672Z,11.30
2018-12-25T02:15:29.597Z,11.20
2018-12-25T02:17:33.546Z,11.90
2018-12-25T02:18:33.462Z,11.50
2018-12-25T02:20:37.404Z,11.60
2018-12-25T02:21:37.349Z,11.00
2018-12-25T02:23:41.371Z,11.00
2018-12-25T02:24:41.266Z,11.30
2018-12-25T02:26:45.267Z,11.70
2018-12-25T02:27:45.177Z,10.50
2018-12-25T02:29:49.185Z,10.40
2018-12-25T02:30:49.099Z,10.20
2018-12-25T02:32:53.037Z,11.00
2018-12-25T02:33:53.006Z,11.10
2018-12-25T02:35:57.000Z,10.60
2018-12-25T02:36:56.984Z,11.00
2018-12-25T02:39:00.928Z,10.80
2018-12-25T02:40:00.826Z,12.30
2018-12-25T02:42:04.757Z,10.50
2018-12-25T02:43:04.727Z,10.50
2018-12-25T02:44:57.691Z,10.60
2018-12-25T02:45:57.576Z,10.80
2018-12-25T02:48:01.590Z,10.70
2018-12-25T02:49:01.487Z,10.70
2018-12-25T02:51:05.498Z,10.80
2018-12-25T02:52:05.397Z,9.90
2018-12-25T02:54:09.411Z,10.60
2018-12-25T02:55:09.377Z,10.70
2018-12-25T02:57:13.315Z,11.10
2018-12-25T02:58:13.217Z,10.70
2018-12-25T03:00:17.230Z,10.40
2018-12-25T03:01:17.126Z,10.60
2018-12-25T03:03:21.079Z,11.00
2018-12-25T03:04:21.036Z,10.70
2018-12-25T03:06:25.049Z,10.30
2018-12-25T03:07:24.947Z,10.30
2018-12-25T03:09:28.957Z,10.50
2018-12-25T03:10:28.856Z,10.80
2018-12-25T03:12:32.878Z,10.90
2018-12-25T03:13:32.765Z,10.70
2018-12-25T03:15:36.775Z,10.90
2018-12-25T03:16:36.676Z,10.60
2018-12-25T03:18:40.698Z,10.50
2018-12-25T03:19:40.658Z,10.50
2018-12-25T03:21:44.608Z,10.20
2018-12-25T03:22:44.499Z,10.40
2018-12-25T03:24:37.386Z,10.30
2018-12-25T03:25:37.359Z,11.00
2018-12-25T03:27:41.369Z,10.00
2018-12-25T03:28:41.255Z,10.70
2018-12-25T03:30:45.274Z,10.70
2018-12-25T03:31:45.167Z,10.20
2018-12-25T03:33:49.183Z,10.40
2018-12-25T03:34:49.076Z,11.70
2018-12-25T03:36:53.052Z,10.50
2018-12-25T03:37:53.057Z,11.60
2018-12-25T03:39:57.009Z,10.10
2018-12-25T03:40:56.896Z,10.60
2018-12-25T03:43:00.917Z,10.70
2018-12-25T03:44:00.823Z,11.90
2018-12-25T03:46:04.759Z,11.10
2018-12-25T03:47:04.790Z,10.80
2018-12-25T03:49:08.728Z,11.10
2018-12-25T03:50:10.807Z,10.90
2018-12-25T03:52:13.507Z,11.00
2018-12-25T03:53:13.480Z,10.80
2018-12-25T03:55:18.401Z,11.10
2018-12-25T03:56:18.302Z,11.90
2018-12-25T03:58:23.227Z,11.00
2018-12-25T03:59:23.119Z,11.50
2018-12-25T04:01:28.058Z,11.00
2018-12-25T04:02:27.957Z,10.20
2018-12-25T04:04:20.911Z,12.40
2018-12-25T04:05:20.807Z,11.20
2018-12-25T04:07:25.738Z,11.50
2018-12-25T04:08:25.637Z,10.90
2018-12-25T04:10:29.658Z,11.20
2018-12-25T04:11:29.547Z,11.10
2018-12-25T04:13:34.069Z,11.50
2018-12-25T04:14:33.966Z,11.20
2018-12-25T04:16:38.001Z,11.80
2018-12-25T04:17:37.888Z,12.90
2018-12-25T04:19:41.910Z,11.60
2018-12-25T04:20:41.788Z,11.40
2018-12-25T04:22:46.720Z,11.10
2018-12-25T04:23:46.631Z,11.10
2018-12-25T04:25:50.639Z,11.40
2018-12-25T04:26:50.535Z,11.30
2018-12-25T04:28:54.536Z,11.60
2018-12-25T04:29:54.436Z,11.50
2018-12-25T04:31:58.445Z,11.60
2018-12-25T04:32:58.360Z,12.10
2018-12-25T04:34:51.295Z,11.70
2018-12-25T04:35:51.298Z,12.10
2018-12-25T04:37:55.209Z,12.30
2018-12-25T04:38:55.107Z,12.40
2018-12-25T04:40:59.115Z,12.10
2018-12-25T04:41:59.019Z,12.70
2018-12-25T04:44:03.038Z,12.40
2018-12-25T04:45:02.926Z,11.80
2018-12-25T04:47:06.888Z,12.80
2018-12-25T04:48:06.908Z,12.20
2018-12-25T04:50:10.859Z,12.70
2018-12-25T04:51:10.745Z,12.50
2018-12-25T04:53:14.767Z,13.00
2018-12-25T04:54:14.658Z,12.70
2018-12-25T04:56:25.836Z,13.40
2018-12-25T04:57:18.618Z,13.20
2018-12-25T04:59:22.667Z,13.30
2018-12-25T05:00:22.627Z,12.80
2018-12-25T05:02:26.579Z,13.20
2018-12-25T05:03:26.466Z,13.00
2018-12-25T05:05:31.338Z,13.40
2018-12-25T05:06:31.309Z,13.20
2018-12-25T05:08:35.317Z,13.60
2018-12-25T05:09:35.241Z,13.50
2018-12-25T05:11:39.227Z,13.50
2018-12-25T05:12:39.129Z,13.50
2018-12-25T05:14:32.075Z,13.80
2018-12-25T05:15:31.978Z,14.40
2018-12-25T05:17:35.926Z,14.50
2018-12-25T05:18:35.886Z,14.70
2018-12-25T05:20:39.897Z,14.30
2018-12-25T05:21:39.877Z,14.90
2018-12-25T05:23:43.806Z,15.00
2018-12-25T05:24:43.708Z,14.60
2018-12-25T05:26:47.716Z,15.10
2018-12-25T05:27:47.619Z,14.70
2018-12-25T05:29:51.567Z,15.30
2018-12-25T05:30:51.598Z,15.20
2018-12-25T05:31:51.495Z,16.20
2018-12-25T05:32:51.468Z,15.40
2018-12-25T05:33:51.519Z,15.40
2018-12-25T05:34:51.406Z,15.60
2018-12-25T05:35:51.417Z,15.90
2018-12-25T05:36:51.347Z,16.10
2018-12-25T05:37:51.316Z,16.10
2018-12-25T05:38:51.335Z,16.10
2018-12-25T05:39:51.260Z,15.60
2018-12-25T05:40:51.258Z,16.10
2018-12-25T05:41:51.200Z,16.50
2018-12-25T05:42:51.166Z,16.30
2018-12-25T05:43:51.147Z,16.30
2018-12-25T05:44:51.171Z,16.30
2018-12-25T05:45:51.076Z,16.40
2018-12-25T05:46:51.092Z,16.40
2018-12-25T05:47:51.017Z,17.20
2018-12-25T05:48:50.990Z,16.90
2018-12-25T05:49:50.999Z,16.70
2018-12-25T05:50:50.927Z,17.30
2018-12-25T05:51:51.007Z,17.20
2018-12-25T05:52:50.867Z,17.00
2018-12-25T05:53:50.837Z,17.10
2018-12-25T05:54:50.829Z,16.60
2018-12-25T05:55:50.778Z,16.80
2018-12-25T05:56:50.838Z,17.10
2018-12-25T05:57:50.715Z,17.10
2018-12-25T05:58:50.688Z,16.70
2018-12-25T05:59:50.687Z,17.80
2018-12-25T06:00:50.681Z,17.20
2018-12-25T06:01:50.598Z,17.70
2018-12-25T06:02:50.670Z,18.20
2018-12-25T06:03:50.535Z,17.70
2018-12-25T06:04:50.578Z,16.90
2018-12-25T06:05:50.483Z,18.50
2018-12-25T06:06:50.486Z,18.10
2018-12-25T06:07:50.416Z,17.70
2018-12-25T06:08:50.494Z,17.90
2018-12-25T06:09:51.427Z,19.20
2018-12-25T06:10:50.395Z,17.50
2018-12-25T06:11:50.316Z,18.30
2018-12-25T06:12:50.282Z,18.00
2018-12-25T06:13:50.325Z,18.20
2018-12-25T06:14:50.234Z,18.50
2018-12-25T06:15:50.175Z,18.10
2018-12-25T06:16:50.248Z,18.40
2018-12-25T06:17:50.116Z,19.00
2018-12-25T06:18:51.176Z,18.70
2018-12-25T06:19:50.057Z,18.30
2018-12-25T06:20:55.095Z,18.60
2018-12-25T06:21:50.008Z,18.40
2018-12-25T06:22:50.075Z,18.40
2018-12-25T06:23:49.935Z,19.00
2018-12-25T06:24:49.998Z,19.20
2018-12-25T06:25:49.878Z,18.90
2018-12-25T06:26:49.898Z,18.50
2018-12-25T06:27:49.832Z,18.40
2018-12-25T06:28:49.806Z,18.70
2018-12-25T06:29:49.761Z,18.40
2018-12-25T06:30:49.740Z,18.70
2018-12-25T06:31:49.700Z,18.70
2018-12-25T06:32:49.726Z,19.20
2018-12-25T06:33:49.635Z,19.00
2018-12-25T06:34:49.650Z,18.50
2018-12-25T06:35:49.580Z,19.30
2018-12-25T06:36:49.657Z,18.50
2018-12-25T06:37:49.517Z,19.20
2018-12-25T06:38:49.567Z,19.20
2018-12-25T06:39:49.459Z,19.50
2018-12-25T06:40:49.475Z,19.30
2018-12-25T06:41:49.395Z,19.90
2018-12-25T06:42:49.388Z,19.00
2018-12-25T06:43:49.337Z,18.90
2018-12-25T06:44:49.396Z,19.70
2018-12-25T06:45:49.278Z,20.70
2018-12-25T06:46:49.246Z,19.50
2018-12-25T06:47:49.315Z,19.80
2018-12-25T06:48:49.186Z,19.60
2018-12-25T06:49:49.225Z,19.00
2018-12-25T06:50:49.125Z,19.40
2018-12-25T06:51:49.096Z,18.90
2018-12-25T06:52:49.072Z,18.80
2018-12-25T06:53:49.148Z,20.10
2018-12-25T06:54:49.007Z,19.50
2018-12-25T06:55:49.058Z,18.70
2018-12-25T06:56:48.953Z,19.30
2018-12-25T06:57:48.965Z,19.30
2018-12-25T06:58:48.886Z,19.90
2018-12-25T06:59:48.878Z,18.70
2018-12-25T07:00:48.826Z,19.40
2018-12-25T07:01:48.889Z,20.70
2018-12-25T07:02:48.777Z,19.70
2018-12-25T07:03:48.807Z,19.40
2018-12-25T07:04:48.707Z,20.10
2018-12-25T07:05:48.707Z,19.40
2018-12-25T07:06:50.544Z,19.80
2018-12-25T07:07:48.615Z,19.20
2018-12-25T07:08:48.598Z,19.40
2018-12-25T07:09:48.624Z,20.50
2018-12-25T07:10:48.525Z,19.40
2018-12-25T07:11:48.585Z,18.80
2018-12-25T07:12:48.470Z,19.90
2018-12-25T07:13:48.435Z,20.00
2018-12-25T07:14:48.456Z,19.30
2018-12-25T07:15:48.376Z,19.80
2018-12-25T07:16:48.364Z,19.90
2018-12-25T07:17:48.325Z,19.30
2018-12-25T07:18:48.285Z,20.00
2018-12-25T07:19:49.311Z,19.60
2018-12-25T07:20:48.227Z,20.30
2018-12-25T07:21:48.297Z,19.00
2018-12-25T07:22:48.167Z,19.90
2018-12-25T07:23:48.138Z,19.80
2018-12-25T07:24:48.122Z,20.30
2018-12-25T07:25:48.138Z,20.60
2018-12-25T07:26:48.051Z,19.70
2018-12-25T07:27:48.024Z,19.60
2018-12-25T07:28:47.985Z,20.00
2018-12-25T07:29:48.036Z,20.00
2018-12-25T07:30:47.926Z,20.40
2018-12-25T07:31:47.954Z,19.70
2018-12-25T07:32:47.871Z,19.90
2018-12-25T07:33:47.857Z,19.80
2018-12-25T07:34:47.804Z,20.40
2018-12-25T07:35:47.876Z,20.10
2018-12-25T07:36:47.745Z,20.30
2018-12-25T07:37:47.785Z,20.60
2018-12-25T07:38:47.674Z,20.00
2018-12-25T07:39:47.655Z,20.70
2018-12-25T07:40:47.695Z,20.70
2018-12-25T07:41:47.596Z,20.40
2018-12-25T07:42:47.604Z,19.90
2018-12-25T07:43:47.545Z,20.30
2018-12-25T07:44:47.505Z,20.50
2018-12-25T07:45:47.466Z,20.00
2018-12-25T07:46:47.534Z,19.60
2018-12-25T07:47:47.417Z,20.20
2018-12-25T07:48:47.444Z,20.30
2018-12-25T07:49:47.345Z,20.20
2018-12-25T07:50:47.366Z,20.90
2018-12-25T07:51:47.286Z,21.60
2018-12-25T07:52:47.366Z,20.10
2018-12-25T07:53:47.228Z,22.10
2018-12-25T07:54:47.312Z,20.80
2018-12-25T07:55:47.175Z,20.50
2018-12-25T07:56:47.145Z,19.80
2018-12-25T07:57:47.185Z,20.20
2018-12-25T07:58:47.075Z,20.40
2018-12-25T07:59:47.115Z,20.70
2018-12-25T08:00:47.105Z,21.40
2018-12-25T08:01:46.984Z,21.10
2018-12-25T08:02:47.016Z,20.40
2018-12-25T08:03:46.927Z,21.00
2018-12-25T08:04:46.928Z,21.10
2018-12-25T08:05:46.866Z,21.30
2018-12-25T08:06:46.938Z,20.50
2018-12-25T08:07:46.804Z,20.90
2018-12-25T08:08:46.858Z,20.20
2018-12-25T08:09:46.746Z,26.90
2018-12-25T08:10:46.760Z,19.80
2018-12-25T08:11:46.685Z,20.40
2018-12-25T08:12:46.677Z,19.70
2018-12-25T08:13:46.638Z,20.50
2018-12-25T08:14:46.686Z,20.10
2018-12-25T08:15:46.565Z,20.70
2018-12-25T08:16:46.547Z,20.20
2018-12-25T08:17:46.506Z,21.10
2018-12-25T08:18:46.506Z,20.00
2018-12-25T08:19:46.462Z,19.90
2018-12-25T08:20:46.516Z,19.90
2018-12-25T08:21:46.442Z,20.20
2018-12-25T08:22:46.426Z,19.50
2018-12-25T08:23:46.326Z,20.10
2018-12-25T08:24:46.338Z,19.80
2018-12-25T08:25:46.297Z,20.20
2018-12-25T08:26:46.253Z,20.10
2018-12-25T08:27:46.205Z,20.10
2018-12-25T08:28:46.258Z,19.20
2018-12-25T08:29:46.134Z,19.50
2018-12-25T08:30:46.166Z,19.10
2018-12-25T08:31:46.089Z,19.60
2018-12-25T08:32:46.139Z,19.70
2018-12-25T08:33:46.017Z,18.80
2018-12-25T08:34:46.110Z,18.90
2018-12-25T08:35:45.966Z,19.00
2018-12-25T08:36:46.017Z,19.50
2018-12-25T08:37:46.005Z,18.80
2018-12-25T08:38:45.907Z,20.80
2018-12-25T08:39:45.988Z,20.20
2018-12-25T08:40:45.807Z,20.00
2018-12-25T08:41:45.894Z,20.10
2018-12-25T08:42:45.746Z,20.50
2018-12-25T08:43:45.715Z,19.60
2018-12-25T08:44:45.822Z,20.40
2018-12-25T08:45:45.656Z,19.00
2018-12-25T08:46:45.738Z,19.90
2018-12-25T08:47:45.596Z,20.60
2018-12-25T08:48:45.577Z,20.30
2018-12-25T08:49:45.648Z,20.10
2018-12-25T08:50:45.508Z,19.60
2018-12-25T08:51:45.657Z,20.30
2018-12-25T08:52:45.448Z,20.80
2018-12-25T08:53:45.426Z,21.10
2018-12-25T08:54:45.386Z,20.50
2018-12-25T08:55:47.291Z,21.20
2018-12-25T08:56:45.325Z,20.40
2018-12-25T08:57:45.396Z,20.00
2018-12-25T08:58:45.265Z,20.00
2018-12-25T08:59:45.246Z,18.80
2018-12-25T09:00:45.306Z,19.90
2018-12-25T09:01:45.188Z,19.40
2018-12-25T09:02:45.328Z,19.60
2018-12-25T09:03:45.105Z,19.90
2018-12-25T09:04:45.097Z,20.60
2018-12-25T09:05:45.247Z,20.20
2018-12-25T09:06:45.031Z,19.40
2018-12-25T09:07:45.154Z,19.50
2018-12-25T09:08:44.956Z,19.10
2018-12-25T09:09:44.927Z,19.40
2018-12-25T09:10:44.896Z,18.60
2018-12-25T09:11:44.976Z,19.60
2018-12-25T09:12:44.850Z,20.00
2018-12-25T09:13:44.998Z,19.90
2018-12-25T09:14:44.765Z,19.00
2018-12-25T09:15:44.808Z,19.40
2018-12-25T09:16:44.721Z,18.80
2018-12-25T09:17:44.818Z,19.00
2018-12-25T09:18:44.659Z,19.50
2018-12-25T09:19:44.830Z,20.70
2018-12-25T09:20:44.595Z,19.80
2018-12-25T09:21:46.403Z,19.50
2018-12-25T09:22:44.535Z,19.50
2018-12-25T09:23:44.656Z,19.50
2018-12-25T09:24:44.476Z,18.60
2018-12-25T09:25:44.446Z,19.70
2018-12-25T09:26:44.415Z,18.50
2018-12-25T09:27:44.575Z,19.20
2018-12-25T09:28:44.358Z,20.10
2018-12-25T09:29:44.496Z,18.90
2018-12-25T09:30:44.297Z,20.10
2018-12-25T09:31:44.407Z,18.50
2018-12-25T09:32:44.227Z,20.00
2018-12-25T09:33:44.415Z,19.40
2018-12-25T09:34:44.177Z,19.80
2018-12-25T09:35:44.337Z,19.60
2018-12-25T09:36:44.118Z,19.10
2018-12-25T09:37:44.239Z,18.70
2018-12-25T09:38:44.068Z,18.90
2018-12-25T09:39:44.047Z,19.60
2018-12-25T09:40:43.995Z,19.10
2018-12-25T09:41:43.967Z,18.60
2018-12-25T09:42:44.076Z,19.00
2018-12-25T09:43:43.905Z,19.60
2018-12-25T09:44:43.986Z,19.70
2018-12-25T09:45:43.846Z,19.00
2018-12-25T09:46:43.815Z,19.00
2018-12-25T09:47:43.788Z,18.80
2018-12-25T09:48:43.818Z,17.90
2018-12-25T09:49:43.724Z,18.90
2018-12-25T09:50:43.816Z,19.30
2018-12-25T09:51:43.669Z,18.40
2018-12-25T09:52:43.735Z,19.30
2018-12-25T09:53:43.608Z,20.30
2018-12-25T09:54:43.648Z,22.00
2018-12-25T09:55:43.544Z,20.90
2018-12-25T09:56:43.557Z,19.10
2018-12-25T09:57:43.575Z,21.50
2018-12-25T09:58:43.455Z,21.60
2018-12-25T09:59:43.476Z,20.10
2018-12-25T10:00:43.396Z,18.50
2018-12-25T10:01:43.485Z,19.80
2018-12-25T10:02:43.396Z,20.60
2018-12-25T10:03:43.306Z,21.30
2018-12-25T10:04:43.429Z,20.40
2018-12-25T10:05:43.246Z,18.00
2018-12-25T10:06:43.329Z,18.30
2018-12-25T10:07:43.197Z,20.20
2018-12-25T10:08:43.224Z,18.40
2018-12-25T10:09:43.134Z,18.10
2018-12-25T10:10:43.259Z,18.80
2018-12-25T10:11:44.575Z,18.70
2018-12-25T10:12:43.158Z,18.20
2018-12-25T10:13:43.104Z,20.10
2018-12-25T10:14:43.068Z,18.80
2018-12-25T10:15:42.968Z,17.80
2018-12-25T10:16:42.987Z,17.80
2018-12-25T10:17:42.907Z,17.40
2018-12-25T10:18:42.855Z,17.70
2018-12-25T10:19:42.837Z,17.10
2018-12-25T10:20:42.867Z,17.50
2018-12-25T10:21:42.793Z,17.30
2018-12-25T10:22:42.817Z,18.20
2018-12-25T10:23:42.707Z,18.30
2018-12-25T10:24:42.848Z,17.50
2018-12-25T10:25:42.656Z,18.00
2018-12-25T10:26:42.761Z,17.20
2018-12-25T10:27:42.600Z,18.60
2018-12-25T10:28:42.656Z,18.30
2018-12-25T10:29:42.538Z,16.90
2018-12-25T10:30:42.627Z,16.30
2018-12-25T10:31:42.477Z,17.00
2018-12-25T10:32:42.536Z,17.00
2018-12-25T10:33:42.416Z,17.20
2018-12-25T10:34:42.415Z,17.70
2018-12-25T10:35:42.365Z,18.00
2018-12-25T10:36:42.371Z,17.10
2018-12-25T10:37:42.295Z,17.80
2018-12-25T10:38:42.427Z,18.70
2018-12-25T10:39:42.431Z,17.40
2018-12-25T10:40:42.216Z,16.10
2018-12-25T10:41:42.337Z,17.20
2018-12-25T10:42:42.158Z,17.70
2018-12-25T10:43:42.247Z,16.00
2018-12-25T10:44:42.099Z,15.90
2018-12-25T10:45:42.181Z,16.30
2018-12-25T10:46:42.073Z,16.00
2018-12-25T10:47:42.176Z,17.20
2018-12-25T10:48:41.991Z,16.80
2018-12-25T10:49:42.091Z,17.00
2018-12-25T10:50:42.096Z,16.90
2018-12-25T10:51:41.903Z,15.30
2018-12-25T10:52:42.015Z,13.80
2018-12-25T10:53:41.837Z,14.30
2018-12-25T10:54:41.917Z,16.50
2018-12-25T10:55:41.925Z,14.20
2018-12-25T10:56:41.756Z,13.50
2018-12-25T10:57:41.767Z,15.00
2018-12-25T10:58:41.708Z,14.10
2018-12-25T10:59:41.777Z,13.20
2018-12-25T11:00:41.657Z,14.00
2018-12-25T11:01:49.209Z,13.20
2018-12-25T11:03:45.880Z,15.20
2018-12-25T11:04:45.663Z,14.20
2018-12-25T11:06:49.756Z,15.90
2018-12-25T11:07:49.857Z,14.20
2018-12-25T11:09:53.735Z,15.40
2018-12-25T11:10:53.875Z,16.30
2018-12-25T11:12:57.916Z,14.30
2018-12-25T11:13:57.715Z,14.40
2018-12-25T11:16:01.939Z,14.80
2018-12-25T11:17:01.907Z,13.80
2018-12-25T11:19:05.964Z,13.40
2018-12-25T11:20:11.438Z,14.80
2018-12-25T11:22:09.806Z,14.20
2018-12-25T11:23:09.755Z,13.70
2018-12-25T11:25:02.744Z,13.40
2018-12-25T11:26:02.717Z,13.10
2018-12-25T11:28:06.934Z,13.60
2018-12-25T11:29:06.727Z,13.30
2018-12-25T11:31:10.949Z,14.50
2018-12-25T11:32:10.745Z,12.50
2018-12-25T11:34:14.975Z,12.70
2018-12-25T11:35:14.754Z,13.80
2018-12-25T11:37:18.998Z,13.20
2018-12-25T11:38:18.945Z,13.30
2018-12-25T11:40:12.140Z,11.10
2018-12-25T11:41:11.942Z,11.00
2018-12-25T11:43:16.048Z,10.70
2018-12-25T11:44:15.946Z,11.60
2018-12-25T11:46:20.165Z,10.80
2018-12-25T11:47:19.983Z,10.60
2018-12-25T11:49:24.015Z,10.90
2018-12-25T11:50:24.045Z,11.00
2018-12-25T11:52:28.505Z,9.80
2018-12-25T11:53:28.003Z,9.60
2018-12-25T11:55:32.107Z,9.40
2018-12-25T11:56:32.015Z,9.50
2018-12-25T11:58:36.229Z,8.90
2018-12-25T11:59:36.209Z,8.80
2018-12-25T12:01:40.257Z,8.70
2018-12-25T12:02:40.156Z,9.60
2018-12-25T12:04:33.199Z,10.00
2018-12-25T12:05:33.106Z,9.20
2018-12-25T12:07:37.215Z,9.00
2018-12-25T12:08:37.115Z,10.70
2018-12-25T12:10:41.176Z,9.40
2018-12-25T12:11:41.207Z,9.00
2018-12-25T12:13:45.236Z,9.70
2018-12-25T12:14:45.157Z,9.20
2018-12-25T12:16:49.267Z,10.30
2018-12-25T12:17:49.167Z,9.60
2018-12-25T12:19:53.289Z,9.70
2018-12-25T12:20:53.245Z,10.80
2018-12-25T12:22:57.796Z,10.80
2018-12-25T12:23:57.715Z,11.60
2018-12-25T12:26:01.756Z,11.30
2018-12-25T12:27:01.725Z,11.10
2018-12-25T12:29:05.823Z,10.40
2018-12-25T12:30:05.736Z,10.90
2018-12-25T12:32:09.845Z,10.40
2018-12-25T12:33:09.765Z,11.80
2018-12-25T12:35:02.695Z,11.40
2018-12-25T12:36:02.615Z,10.20
2018-12-25T12:38:06.719Z,11.60
2018-12-25T12:39:06.625Z,10.90
2018-12-25T12:41:10.665Z,12.10
2018-12-25T12:42:10.626Z,12.80
2018-12-25T12:44:14.636Z,12.50
2018-12-25T12:45:14.545Z,13.40
2018-12-25T12:47:18.486Z,14.10
2018-12-25T12:48:18.455Z,12.10
2018-12-25T12:50:22.464Z,11.90
2018-12-25T12:51:22.386Z,10.90
2018-12-25T12:53:26.374Z,14.00
2018-12-25T12:54:26.295Z,12.80
2018-12-25T12:56:30.306Z,11.80
2018-12-25T12:57:30.205Z,12.40
2018-12-25T12:59:34.208Z,12.60
2018-12-25T13:00:34.111Z,11.70
2018-12-25T13:02:38.124Z,12.10
2018-12-25T13:03:38.025Z,12.10
2018-12-25T13:05:42.034Z,12.40
2018-12-25T13:06:41.923Z,12.00
2018-12-25T13:08:45.884Z,10.80
2018-12-25T13:09:45.939Z,12.50
2018-12-25T13:11:49.853Z,11.30
2018-12-25T13:12:49.754Z,11.10
2018-12-25T13:14:42.704Z,11.30
2018-12-25T13:15:42.611Z,13.20
2018-12-25T13:17:46.639Z,12.70
2018-12-25T13:18:46.587Z,11.00
2018-12-25T13:20:50.635Z,10.70
2018-12-25T13:21:50.436Z,10.70
2018-12-25T13:23:54.377Z,13.00
2018-12-25T13:24:54.345Z,11.70
2018-12-25T13:26:58.563Z,11.70
2018-12-25T13:27:58.358Z,11.40
2018-12-25T13:30:02.391Z,11.30
2018-12-25T13:31:02.274Z,11.60
2018-12-25T13:33:06.284Z,11.60
2018-12-25T13:34:06.218Z,10.70
2018-12-25T13:36:10.305Z,11.80
2018-12-25T13:37:10.205Z,11.60
2018-12-25T13:39:14.215Z,11.60
2018-12-25T13:40:14.175Z,11.20
2018-12-25T13:42:18.224Z,11.10
2018-12-25T13:43:18.125Z,11.80
2018-12-25T13:45:22.075Z,10.60
2018-12-25T13:46:22.107Z,10.80
2018-12-25T13:48:26.154Z,11.20
2018-12-25T13:49:26.066Z,11.70
2018-12-25T13:51:30.175Z,11.20
2018-12-25T13:52:30.065Z,10.60
2018-12-25T13:54:23.128Z,10.80
2018-12-25T13:55:23.025Z,10.50
2018-12-25T13:57:27.079Z,11.10
2018-12-25T13:58:26.936Z,11.10
2018-12-25T14:00:30.949Z,10.50
2018-12-25T14:01:30.846Z,12.90
2018-12-25T14:03:34.869Z,10.10
2018-12-25T14:04:34.765Z,11.30
2018-12-25T14:05:34.850Z,10.80
2018-12-25T14:06:34.726Z,12.70
2018-12-25T14:07:34.688Z,10.80
2018-12-25T14:08:34.760Z,11.10
2018-12-25T14:09:34.639Z,11.20
2018-12-25T14:10:34.673Z,10.80
2018-12-25T14:11:34.677Z,10.60
2018-12-25T14:12:34.560Z,11.50
2018-12-25T14:13:34.588Z,11.40
2018-12-25T14:14:34.506Z,10.90
2018-12-25T14:15:34.505Z,13.40
2018-12-25T14:16:34.457Z,11.50
2018-12-25T14:17:35.438Z,11.40
2018-12-25T14:18:34.409Z,11.30
2018-12-25T14:19:34.426Z,11.60
2018-12-25T14:20:34.346Z,12.10
2018-12-25T14:21:34.336Z,11.80
2018-12-25T14:22:34.296Z,12.20
2018-12-25T14:23:34.357Z,12.20
2018-12-25T14:24:34.246Z,11.90
2018-12-25T14:25:34.265Z,11.50
2018-12-25T14:26:34.188Z,12.10
2018-12-25T14:27:34.156Z,13.30
2018-12-25T14:28:34.184Z,12.20
2018-12-25T14:29:34.107Z,13.10
2018-12-25T14:30:34.107Z,12.50
2018-12-25T14:31:34.046Z,12.20
2018-12-25T14:32:34.026Z,13.30
2018-12-25T14:33:34.015Z,12.90
2018-12-25T14:34:33.964Z,13.30
2018-12-25T14:35:34.024Z,13.30
2018-12-25T14:36:33.927Z,12.90
2018-12-25T14:37:33.934Z,14.10
2018-12-25T14:38:33.854Z,13.40
2018-12-25T14:39:33.857Z,19.20
2018-12-25T14:40:33.805Z,15.70
2018-12-25T14:41:33.865Z,12.80
2018-12-25T14:42:33.786Z,13.20
2018-12-25T14:43:33.718Z,12.40
2018-12-25T14:44:33.786Z,13.80
2018-12-25T14:45:33.678Z,13.10
2018-12-25T14:46:33.696Z,13.50
2018-12-25T14:47:33.606Z,13.50
2018-12-25T14:48:33.608Z,13.80
2018-12-25T14:49:33.554Z,13.50
2018-12-25T14:50:33.626Z,13.80
2018-12-25T14:51:33.495Z,13.60
2018-12-25T14:52:33.536Z,13.40
2018-12-25T14:53:33.436Z,13.90
2018-12-25T14:54:33.466Z,14.00
2018-12-25T14:55:33.399Z,14.10
2018-12-25T14:56:33.467Z,14.40
2018-12-25T14:57:33.327Z,13.90
2018-12-25T14:58:33.295Z,14.00
2018-12-25T14:59:33.387Z,14.20
2018-12-25T15:00:33.245Z,14.10
2018-12-25T15:01:33.335Z,13.50
2018-12-25T15:02:33.187Z,13.90
2018-12-25T15:03:33.164Z,14.40
2018-12-25T15:04:33.136Z,13.50
2018-12-25T15:05:33.220Z,13.30
2018-12-25T15:06:33.077Z,14.50
2018-12-25T15:07:33.137Z,13.90
2018-12-25T15:08:33.033Z,14.20
2018-12-25T15:09:32.986Z,14.20
2018-12-25T15:10:33.055Z,14.60
2018-12-25T15:11:32.945Z,14.50
2018-12-25T15:12:32.966Z,14.40
2018-12-25T15:13:32.876Z,14.90
2018-12-25T15:14:32.845Z,14.30
2018-12-25T15:15:32.887Z,14.00
2018-12-25T15:16:32.795Z,14.20
2018-12-25T15:17:32.800Z,14.70
2018-12-25T15:18:32.730Z,14.30
2018-12-25T15:19:32.705Z,14.50
2018-12-25T15:20:32.674Z,14.50
2018-12-25T15:21:32.717Z,14.10
2018-12-25T15:22:32.615Z,14.40
2018-12-25T15:23:32.665Z,14.90
2018-12-25T15:24:32.569Z,13.40
2018-12-25T15:25:33.565Z,14.80
2018-12-25T15:26:32.505Z,15.00
2018-12-25T15:27:32.571Z,14.20
2018-12-25T15:28:32.458Z,15.80
2018-12-25T15:29:32.467Z,15.00
2018-12-25T15:30:32.398Z,14.60
2018-12-25T15:31:32.382Z,14.90
2018-12-25T15:32:32.338Z,13.80
2018-12-25T15:33:32.399Z,14.80
2018-12-25T15:34:32.288Z,15.40
2018-12-25T15:35:32.257Z,14.50
2018-12-25T15:36:32.316Z,14.90
2018-12-25T15:37:32.197Z,14.80
2018-12-25T15:38:32.229Z,15.40
2018-12-25T15:39:32.139Z,14.10
2018-12-25T15:40:32.112Z,14.60
2018-12-25T15:41:32.075Z,15.00
2018-12-25T15:42:32.151Z,15.30
2018-12-25T15:43:32.018Z,15.10
2018-12-25T15:44:32.061Z,14.50
2018-12-25T15:45:31.957Z,14.70
2018-12-25T15:46:31.976Z,15.10
2018-12-25T15:47:31.895Z,15.00
2018-12-25T15:48:31.987Z,15.40
2018-12-25T15:49:31.857Z,15.30